createdAt,value
2022-11-22T06:23:34.213Z,17.97
2022-11-22T06:26:36.133Z,16.44
2022-11-22T06:29:27.308Z,13.80
2022-11-22T06:32:09.164Z,11.66
2022-11-22T06:34:57.164Z,9.76
2022-11-22T06:37:32.327Z,8.18
2022-11-22T06:40:20.171Z,6.86
2022-11-22T06:42:55.297Z,5.70
2022-11-22T06:45:43.162Z,4.75
2022-11-22T06:48:17.309Z,3.95
2022-11-22T06:51:25.167Z,3.30
2022-11-22T06:54:00.394Z,2.65
2022-11-22T06:56:48.142Z,3.25
2022-11-22T06:59:29.355Z,6.14
2022-11-22T07:02:25.152Z,7.92
2022-11-22T07:05:28.577Z,8.78
2022-11-22T07:08:10.419Z,8.94
2022-11-22T07:11:01.135Z,7.21
2022-11-22T07:13:42.152Z,5.62
2022-11-22T07:16:37.154Z,4.45
2022-11-22T07:19:25.261Z,3.62
2022-11-22T07:22:00.399Z,3.10
2022-11-22T07:24:48.231Z,2.66
2022-11-22T07:27:23.340Z,2.28
2022-11-22T07:30:11.149Z,3.06
2022-11-22T07:32:46.312Z,6.02
2022-11-22T07:35:34.173Z,7.84
2022-11-22T07:38:16.169Z,8.82
2022-11-22T07:41:11.171Z,9.39
2022-11-22T07:44:00.236Z,8.88
2022-11-22T07:46:36.296Z,7.08
2022-11-22T07:49:24.155Z,5.62
2022-11-22T07:52:06.151Z,4.58
2022-11-22T07:54:54.132Z,3.80
2022-11-22T07:57:29.291Z,3.20
2022-11-22T08:00:19.144Z,2.78
2022-11-22T08:02:54.279Z,4.77
2022-11-22T08:05:42.151Z,7.42
2022-11-22T08:08:17.389Z,9.89
2022-11-22T08:11:06.157Z,13.33
2022-11-22T08:13:54.145Z,14.17
2022-11-22T08:16:28.720Z,14.98
2022-11-22T08:19:16.156Z,15.98
2022-11-22T08:21:58.663Z,16.93
2022-11-22T08:24:40.341Z,17.77
2022-11-22T08:27:21.150Z,18.43
2022-11-22T08:30:02.366Z,18.98
2022-11-22T08:32:43.147Z,19.40
2022-11-22T08:35:32.123Z,19.78
2022-11-22T08:38:17.110Z,20.07
2022-11-22T08:41:07.164Z,20.32
2022-11-22T08:44:07.181Z,20.54
2022-11-22T08:46:55.219Z,20.73
2022-11-22T08:49:36.299Z,20.88
2022-11-22T08:52:17.268Z,21.00
2022-11-22T08:54:58.343Z,21.13
2022-11-22T08:57:40.238Z,21.25
2022-11-22T09:00:33.373Z,21.34
2022-11-22T09:03:09.365Z,21.42
2022-11-22T09:09:22.201Z,21.56
2022-11-22T09:12:06.143Z,21.61
2022-11-22T09:14:40.895Z,21.65
2022-11-22T09:17:29.144Z,21.69
2022-11-22T09:20:04.871Z,21.71
2022-11-22T09:22:53.140Z,21.74
2022-11-22T09:25:41.242Z,21.80
2022-11-22T09:28:16.390Z,21.84
2022-11-22T09:31:13.096Z,21.86
2022-11-22T09:33:56.141Z,21.87
2022-11-22T09:36:51.245Z,21.88
2022-11-22T09:39:41.447Z,21.91
2022-11-22T09:42:32.445Z,21.96
2022-11-22T09:45:48.245Z,21.98
2022-11-22T09:48:42.415Z,21.98
2022-11-22T09:51:31.139Z,21.99
2022-11-22T09:54:19.312Z,22.01
2022-11-22T09:57:04.136Z,22.03
2022-11-22T09:59:54.169Z,22.03
2022-11-22T10:02:58.946Z,22.02
2022-11-22T10:06:01.129Z,22.04
2022-11-22T10:08:57.600Z,22.06
2022-11-22T10:11:59.178Z,22.07
2022-11-22T10:14:39.363Z,22.09
2022-11-22T10:17:42.091Z,22.11
2022-11-22T10:20:26.282Z,22.12
2022-11-22T10:23:33.224Z,22.11
2022-11-22T10:26:24.233Z,22.10
2022-11-22T10:29:23.617Z,22.13
2022-11-22T10:32:40.126Z,22.15
2022-11-22T10:35:43.291Z,22.14
2022-11-22T10:38:42.231Z,22.15
2022-11-22T10:41:23.410Z,22.18
2022-11-22T10:44:42.169Z,22.17
2022-11-22T10:47:47.308Z,22.18
2022-11-22T10:51:07.137Z,22.21
2022-11-22T10:54:23.375Z,22.24
2022-11-22T10:57:20.132Z,22.24
2022-11-22T11:00:16.395Z,22.26
2022-11-22T11:03:40.135Z,22.29
2022-11-22T11:07:10.286Z,22.33
2022-11-22T11:12:53.297Z,22.37
2022-11-22T11:15:47.260Z,22.39
2022-11-22T11:18:38.360Z,22.40
2022-11-22T11:21:33.145Z,22.42
2022-11-22T11:24:29.302Z,22.41
2022-11-22T11:27:18.182Z,22.38
2022-11-22T11:29:56.318Z,22.37
2022-11-22T11:33:01.259Z,22.38
2022-11-22T11:35:44.153Z,22.32
2022-11-22T11:38:50.165Z,22.30
2022-11-22T11:41:43.395Z,22.32
2022-11-22T11:44:44.123Z,22.33
2022-11-22T11:47:48.153Z,22.33
2022-11-22T11:50:39.083Z,22.33
2022-11-22T11:53:23.377Z,22.35
2022-11-22T11:56:51.243Z,22.35
2022-11-22T11:59:27.360Z,22.30
2022-11-22T12:02:20.451Z,22.27
2022-11-22T12:04:55.447Z,22.25
2022-11-22T12:07:43.202Z,22.21
2022-11-22T12:10:38.268Z,22.15
2022-11-22T12:17:00.319Z,22.05
2022-11-22T12:19:52.154Z,22.02
2022-11-22T12:22:50.022Z,21.97
2022-11-22T12:25:48.146Z,21.90
2022-11-22T12:28:36.160Z,21.85
2022-11-22T12:31:29.327Z,21.80
2022-11-22T12:34:25.144Z,21.76
2022-11-22T12:37:23.295Z,21.73
2022-11-22T12:40:24.135Z,21.71
2022-11-22T12:43:01.273Z,21.70
2022-11-22T12:45:52.159Z,21.70
2022-11-22T12:48:49.257Z,21.71
2022-11-22T12:51:40.243Z,21.75
2022-11-22T12:54:28.541Z,21.79
2022-11-22T12:57:37.180Z,21.84
2022-11-22T13:00:29.144Z,21.90
2022-11-22T13:03:18.608Z,21.94
2022-11-22T13:06:01.759Z,22.02
2022-11-22T13:09:14.142Z,22.06
2022-11-22T13:12:21.161Z,21.97
2022-11-22T13:15:05.581Z,21.80
2022-11-22T13:17:47.168Z,21.66
2022-11-22T13:20:31.288Z,21.53
2022-11-22T13:23:38.186Z,21.35
2022-11-22T16:00:01.333Z,18.32
2022-11-22T16:02:37.294Z,16.22
2022-11-22T16:06:05.314Z,14.36
2022-11-22T16:08:32.610Z,12.52
2022-11-22T16:11:35.141Z,11.11
2022-11-22T16:14:55.104Z,9.88
2022-11-22T16:17:44.135Z,8.69
2022-11-22T16:20:38.274Z,7.88
2022-11-22T16:23:32.124Z,7.15
2022-11-22T16:26:27.119Z,6.55
2022-11-22T16:29:38.145Z,5.98
2022-11-22T16:32:25.114Z,5.50
2022-11-22T16:35:29.171Z,5.11
2022-11-22T16:38:18.330Z,4.76
2022-11-22T16:40:57.697Z,4.49
2022-11-22T16:43:49.125Z,4.25
2022-11-22T16:46:30.128Z,4.14
2022-11-22T16:49:30.388Z,6.65
2022-11-22T16:52:19.125Z,11.05
2022-11-22T16:54:54.276Z,12.65
2022-11-22T16:57:43.132Z,13.33
2022-11-22T17:00:19.257Z,12.63
2022-11-22T17:03:08.120Z,11.18
2022-11-22T17:05:46.963Z,9.82
2022-11-22T17:08:35.125Z,8.64
2022-11-22T17:11:10.264Z,7.76
2022-11-22T17:14:00.167Z,7.01
2022-11-22T17:16:35.278Z,6.35
2022-11-22T17:19:52.099Z,5.82
2022-11-22T17:22:25.565Z,5.33
2022-11-22T17:25:07.170Z,4.91
2022-11-22T17:27:55.177Z,4.54
2022-11-22T17:30:36.152Z,4.59
2022-11-22T17:33:18.439Z,7.65
2022-11-22T17:36:00.329Z,10.07
2022-11-22T17:38:42.265Z,10.84
2022-11-22T17:41:23.195Z,9.60
2022-11-22T17:44:05.400Z,8.11
2022-11-22T17:46:47.331Z,7.07
2022-11-22T17:49:29.178Z,6.24
2022-11-22T17:52:11.198Z,5.69
2022-11-22T17:55:13.079Z,5.15
2022-11-22T17:58:02.423Z,4.62
2022-11-22T18:00:38.319Z,5.53
2022-11-22T18:03:27.741Z,9.47
2022-11-22T18:06:03.301Z,11.46
2022-11-22T18:08:51.158Z,12.23
2022-11-22T18:11:33.133Z,11.17
2022-11-22T18:14:15.354Z,9.32
2022-11-22T18:17:03.144Z,7.96
2022-11-22T18:19:44.119Z,7.09
2022-11-22T18:22:25.413Z,6.35
2022-11-22T18:25:11.079Z,5.77
2022-11-22T18:27:53.265Z,5.18
2022-11-22T18:30:35.311Z,4.71
2022-11-22T18:33:24.125Z,5.17
2022-11-22T18:36:02.465Z,8.04
2022-11-22T18:38:58.574Z,9.79
2022-11-22T18:41:34.470Z,10.22
2022-11-22T18:44:22.250Z,8.70
2022-11-22T18:47:03.119Z,7.12
2022-11-22T18:49:45.312Z,6.00
2022-11-22T18:52:34.580Z,5.27
2022-11-22T18:55:18.103Z,4.63
2022-11-22T18:58:13.100Z,4.02
2022-11-22T19:01:01.415Z,3.48
2022-11-22T19:03:42.263Z,4.08
2022-11-22T19:06:25.218Z,6.97
2022-11-22T19:09:08.439Z,8.85
2022-11-22T19:11:53.337Z,9.72
2022-11-22T19:14:37.567Z,9.64
2022-11-22T19:17:22.272Z,7.97
2022-11-22T19:20:04.852Z,6.40
2022-11-22T19:22:46.326Z,5.42
2022-11-22T19:25:35.119Z,4.71
2022-11-22T19:28:16.292Z,4.14
2022-11-22T19:30:57.349Z,3.67
2022-11-22T19:33:38.330Z,3.36
2022-11-22T19:36:30.787Z,5.33
2022-11-22T19:39:18.315Z,8.09
2022-11-22T19:42:01.282Z,9.36
2022-11-22T19:44:45.596Z,9.62
2022-11-22T19:47:27.219Z,7.99
2022-11-22T19:50:08.095Z,6.50
2022-11-22T19:52:49.222Z,5.31
2022-11-22T19:55:31.087Z,4.49
2022-11-22T19:58:20.094Z,3.78
2022-11-22T20:01:01.126Z,3.26
2022-11-22T20:03:46.272Z,4.03
2022-11-22T20:06:28.459Z,7.00
2022-11-22T20:09:18.859Z,8.90
2022-11-22T20:12:01.183Z,9.04
2022-11-22T20:14:42.255Z,7.28
2022-11-22T20:17:23.299Z,5.92
2022-11-22T20:20:07.860Z,4.88
2022-11-22T20:22:50.254Z,4.14
